Time;durP1;ratioP1;P1;durP2;ratioP2;P2;SDS_P1;SDS_P2;PMS_P1;PMS_P2;Temp;Humidity;BMP_temperature;BMP_pressure;BME280_temperature;BME280_humidity;BME280_pressure;Samples;Min_cycle;Max_cycle;Signal;HPM_P1;HPM_P2
2023/06/13 00:00:16;;;;;;;3.58;3.00;;;21.20;42.40;;;;;;923517;152;27390;-74
2023/06/13 00:02:44;;;;;;;3.50;3.20;;;21.20;41.80;;;;;;925607;152;27434;-74
2023/06/13 00:05:16;;;;;;;3.90;3.20;;;21.20;41.90;;;;;;924767;152;27352;-74
2023/06/13 00:07:39;;;;;;;3.55;3.25;;;21.10;41.90;;;;;;916368;154;27375;-74
2023/06/13 00:10:08;;;;;;;2.77;2.58;;;21.10;42.00;;;;;;918398;154;27449;-74
2023/06/13 00:12:37;;;;;;;4.03;2.98;;;21.00;42.00;;;;;;915348;154;27415;-74
2023/06/13 00:15:04;;;;;;;3.58;3.27;;;21.00;42.10;;;;;;916543;154;27384;-74
2023/06/13 00:17:31;;;;;;;3.58;3.27;;;21.00;42.20;;;;;;916611;153;27361;-74
2023/06/13 00:19:56;;;;;;;3.37;3.08;;;21.00;42.30;;;;;;917774;154;27382;-74
2023/06/13 00:22:24;;;;;;;3.30;2.95;;;20.90;42.30;;;;;;914778;154;27400;-74
2023/06/13 00:24:50;;;;;;;5.45;3.47;;;20.90;42.40;;;;;;921552;152;27450;-74
2023/06/13 00:27:17;;;;;;;2.87;2.67;;;20.80;42.50;;;;;;901966;155;27427;-74
2023/06/13 00:29:43;;;;;;;3.77;3.20;;;20.80;42.50;;;;;;890667;156;27374;-74
2023/06/13 00:32:10;;;;;;;3.17;2.92;;;20.80;42.60;;;;;;921975;152;27476;-74
2023/06/13 00:34:36;;;;;;;3.42;3.10;;;20.70;42.60;;;;;;922780;152;27407;-74
2023/06/13 00:37:03;;;;;;;3.17;2.98;;;20.70;42.70;;;;;;907950;155;27354;-74
2023/06/13 00:39:29;;;;;;;3.58;3.27;;;20.70;42.80;;;;;;916330;153;27394;-74
2023/06/13 00:41:56;;;;;;;4.22;3.05;;;20.70;42.80;;;;;;916487;153;27485;-74
2023/06/13 00:44:22;;;;;;;3.10;2.80;;;20.70;42.90;;;;;;916939;154;27402;-74
2023/06/13 00:46:50;;;;;;;3.30;2.98;;;20.60;42.90;;;;;;918546;153;27443;-74
2023/06/13 00:49:16;;;;;;;2.80;2.60;;;20.60;43.00;;;;;;918252;154;27429;-74
2023/06/13 00:51:42;;;;;;;3.27;2.98;;;20.60;43.00;;;;;;917243;154;27436;-74
2023/06/13 00:54:10;;;;;;;3.40;3.10;;;20.60;43.10;;;;;;890150;155;27494;-74
2023/06/13 00:56:36;;;;;;;3.62;3.15;;;20.60;43.00;;;;;;889425;155;27797;-74
2023/06/13 00:59:03;;;;;;;3.22;2.95;;;20.50;43.10;;;;;;890841;155;27872;-74
2023/06/13 01:01:28;;;;;;;4.25;3.00;;;20.50;43.10;;;;;;890196;155;27454;-73
2023/06/13 01:03:55;;;;;;;3.33;2.80;;;20.50;43.30;;;;;;891353;155;27373;-74
2023/06/13 01:06:30;;;;;;;2.95;2.75;;;20.50;43.30;;;;;;889565;155;27511;-74
2023/06/13 01:08:58;;;;;;;3.52;3.22;;;20.50;43.60;;;;;;919042;154;27458;-74
2023/06/13 01:11:20;;;;;;;3.10;2.90;;;20.40;43.40;;;;;;919530;153;27389;-74
2023/06/13 01:13:53;;;;;;;3.58;3.27;;;20.40;43.50;;;;;;917619;153;27403;-74
2023/06/13 01:16:34;;;;;;;3.08;2.70;;;20.40;43.60;;;;;;916009;154;27331;-74
2023/06/13 01:19:01;;;;;;;2.98;2.77;;;20.40;43.70;;;;;;917974;154;27330;-76
2023/06/13 01:21:28;;;;;;;3.02;2.83;;;20.40;43.70;;;;;;923174;152;27301;-76
2023/06/13 01:24:14;;;;;;;3.33;3.02;;;20.40;43.90;;;;;;913017;155;27447;-76
2023/06/13 01:26:57;;;;;;;2.67;2.40;;;20.40;43.90;;;;;;925997;151;27472;-76
2023/06/13 01:29:23;;;;;;;3.02;2.80;;;20.30;43.90;;;;;;909420;153;27384;-76
2023/06/13 01:31:50;;;;;;;3.77;3.37;;;20.30;43.90;;;;;;914098;154;27479;-76
2023/06/13 01:34:16;;;;;;;3.40;3.10;;;20.30;44.00;;;;;;913554;154;27559;-76
2023/06/13 01:36:43;;;;;;;3.50;3.20;;;20.30;44.10;;;;;;909392;155;27403;-76
2023/06/13 01:39:09;;;;;;;3.58;3.17;;;20.30;44.20;;;;;;925712;152;27331;-76
2023/06/13 01:41:36;;;;;;;3.10;2.90;;;20.20;44.20;;;;;;909076;155;27296;-76
2023/06/13 01:44:03;;;;;;;3.27;2.98;;;20.20;44.30;;;;;;925858;152;27339;-76
2023/06/13 01:46:29;;;;;;;4.42;3.25;;;20.20;44.30;;;;;;910032;155;27451;-76
2023/06/13 01:49:27;;;;;;;3.33;2.90;;;20.10;44.30;;;;;;913311;154;27371;-76
2023/06/13 01:52:06;;;;;;;3.42;2.95;;;20.00;44.10;;;;;;915447;154;27505;-75
2023/06/13 01:54:32;;;;;;;3.50;3.20;;;20.00;44.40;;;;;;908456;154;27402;-75
2023/06/13 01:56:58;;;;;;;3.75;2.95;;;19.90;44.60;;;;;;913945;154;27364;-75
2023/06/13 01:59:25;;;;;;;3.20;3.00;;;19.80;44.70;;;;;;925819;152;27431;-75
2023/06/13 02:01:52;;;;;;;3.40;3.10;;;19.80;44.80;;;;;;916217;155;27394;-75
2023/06/13 02:04:18;;;;;;;3.20;2.90;;;19.70;45.00;;;;;;925719;152;27383;-75
2023/06/13 02:06:45;;;;;;;3.65;3.00;;;19.60;45.00;;;;;;906286;156;27373;-75
2023/06/13 02:09:11;;;;;;;3.40;3.10;;;19.60;45.30;;;;;;926944;152;27641;-75
2023/06/13 02:11:38;;;;;;;3.22;3.02;;;19.50;45.20;;;;;;924012;152;27394;-75
2023/06/13 02:14:06;;;;;;;3.35;3.05;;;19.50;45.50;;;;;;892633;157;27981;-75
2023/06/13 02:16:31;;;;;;;3.15;2.92;;;19.40;45.50;;;;;;892010;156;27364;-75
2023/06/13 02:19:01;;;;;;;3.30;3.00;;;19.40;45.60;;;;;;892352;156;27376;-75
2023/06/13 02:21:24;;;;;;;2.90;2.70;;;19.30;45.70;;;;;;890662;156;27502;-75
2023/06/13 02:23:51;;;;;;;3.22;2.90;;;19.30;45.80;;;;;;891931;156;27392;-75
2023/06/13 02:26:19;;;;;;;3.45;3.12;;;19.20;45.90;;;;;;892376;156;27433;-75
2023/06/13 02:28:45;;;;;;;3.02;2.83;;;19.20;46.00;;;;;;891496;156;27492;-75
2023/06/13 02:31:11;;;;;;;3.10;2.80;;;19.10;46.10;;;;;;892200;156;27408;-75
2023/06/13 02:33:38;;;;;;;3.27;3.08;;;19.10;46.30;;;;;;890964;156;27409;-75
2023/06/13 02:36:04;;;;;;;3.05;2.72;;;19.10;46.40;;;;;;891971;156;27471;-75
2023/06/13 02:38:30;;;;;;;3.35;2.75;;;19.00;46.40;;;;;;892273;156;27422;-75
2023/06/13 02:40:59;;;;;;;3.15;2.95;;;19.00;46.60;;;;;;912929;154;27375;-75
2023/06/13 02:43:24;;;;;;;2.83;2.62;;;19.00;46.60;;;;;;913743;154;27477;-75
2023/06/13 02:45:51;;;;;;;3.35;3.15;;;19.00;46.90;;;;;;914828;154;27476;-75
2023/06/13 02:48:17;;;;;;;3.20;2.90;;;19.00;46.80;;;;;;914263;153;27330;-75
2023/06/13 02:50:43;;;;;;;4.28;2.98;;;19.00;46.80;;;;;;912904;154;27461;-75
2023/06/13 02:53:11;;;;;;;2.77;2.58;;;18.90;46.90;;;;;;913546;154;27392;-75
2023/06/13 02:55:37;;;;;;;3.05;2.85;;;18.90;46.90;;;;;;914342;154;27477;-75
2023/06/13 02:58:03;;;;;;;4.00;2.90;;;18.90;46.90;;;;;;914336;154;27461;-75
2023/06/13 03:00:30;;;;;;;4.50;3.08;;;18.80;47.00;;;;;;913889;154;27484;-76
2023/06/13 03:03:01;;;;;;;5.10;3.00;;;18.80;47.10;;;;;;914638;154;27414;-76
2023/06/13 03:05:23;;;;;;;2.95;2.65;;;18.70;47.20;;;;;;912582;154;27344;-76
2023/06/13 03:07:50;;;;;;;3.00;2.70;;;18.70;47.30;;;;;;925071;152;27344;-76
2023/06/13 03:10:16;;;;;;;3.37;2.83;;;18.60;47.30;;;;;;914563;154;27825;-76
2023/06/13 03:12:43;;;;;;;3.58;3.10;;;18.60;47.30;;;;;;926285;152;27751;-76
2023/06/13 03:15:11;;;;;;;3.10;2.90;;;18.50;47.50;;;;;;890860;156;27387;-76
2023/06/13 03:17:36;;;;;;;4.25;3.10;;;18.50;48.00;;;;;;913717;154;27485;-77
2023/06/13 03:20:05;;;;;;;3.00;2.72;;;18.40;47.80;;;;;;913837;154;27503;-76
2023/06/13 03:22:29;;;;;;;3.30;3.00;;;18.40;47.90;;;;;;912809;154;27480;-76
2023/06/13 03:24:56;;;;;;;3.67;2.83;;;18.40;48.00;;;;;;925233;152;27313;-76
2023/06/13 03:27:22;;;;;;;4.25;3.10;;;18.40;48.00;;;;;;914668;154;27346;-76
2023/06/13 03:29:49;;;;;;;4.08;3.12;;;18.40;48.20;;;;;;916994;154;27527;-76
2023/06/13 03:32:15;;;;;;;3.50;3.20;;;18.30;48.20;;;;;;917150;154;27463;-76
2023/06/13 03:34:43;;;;;;;4.20;3.47;;;18.30;48.30;;;;;;916053;154;27444;-76
2023/06/13 03:37:09;;;;;;;3.33;3.02;;;18.30;48.40;;;;;;919457;154;27323;-76
2023/06/13 03:39:35;;;;;;;3.60;3.17;;;18.30;48.50;;;;;;922667;152;27391;-76
2023/06/13 03:42:02;;;;;;;3.20;2.90;;;18.30;48.60;;;;;;916453;154;27390;-76
2023/06/13 03:44:28;;;;;;;3.17;2.90;;;18.30;48.60;;;;;;918935;153;27360;-76
2023/06/13 03:46:55;;;;;;;3.77;2.70;;;18.30;49.30;;;;;;917994;154;27302;-76
2023/06/13 03:49:24;;;;;;;3.45;2.95;;;18.30;48.80;;;;;;917253;154;27474;-76
2023/06/13 03:51:51;;;;;;;3.00;2.62;;;18.30;48.90;;;;;;917316;154;27419;-76
2023/06/13 03:54:17;;;;;;;3.95;3.05;;;18.30;48.90;;;;;;916257;154;27379;-76
2023/06/13 03:56:44;;;;;;;3.27;3.08;;;18.30;49.00;;;;;;916615;154;27414;-76
2023/06/13 03:59:10;;;;;;;3.10;2.80;;;18.30;49.10;;;;;;918256;153;27371;-76
2023/06/13 04:01:37;;;;;;;3.27;2.58;;;18.30;49.20;;;;;;919418;154;27493;-76
2023/06/13 04:04:03;;;;;;;3.00;2.67;;;18.30;49.20;;;;;;917891;154;27411;-76
2023/06/13 04:06:30;;;;;;;2.92;2.72;;;18.30;49.30;;;;;;917727;153;27460;-76
2023/06/13 04:08:57;;;;;;;3.52;2.52;;;18.30;49.30;;;;;;918912;153;27475;-76
2023/06/13 04:11:23;;;;;;;3.33;3.12;;;18.40;49.50;;;;;;916572;153;27481;-77
2023/06/13 04:13:50;;;;;;;3.08;2.87;;;18.40;49.40;;;;;;923069;152;27353;-76
2023/06/13 04:16:16;;;;;;;3.30;3.05;;;18.50;49.60;;;;;;919494;153;27380;-76
2023/06/13 04:18:44;;;;;;;3.08;2.77;;;18.50;49.50;;;;;;918765;154;27296;-76
2023/06/13 04:21:10;;;;;;;2.70;2.50;;;18.50;49.50;;;;;;918496;154;27323;-76
2023/06/13 04:23:36;;;;;;;3.70;2.80;;;18.60;49.50;;;;;;915755;154;27422;-76
2023/06/13 04:26:05;;;;;;;3.10;2.80;;;18.70;49.60;;;;;;916692;154;27340;-76
2023/06/13 04:28:32;;;;;;;3.58;2.90;;;18.70;49.60;;;;;;918964;151;27338;-76
2023/06/13 04:31:00;;;;;;;3.20;2.60;;;18.70;49.60;;;;;;915528;154;27436;-76
2023/06/13 04:33:26;;;;;;;3.55;2.58;;;18.80;49.70;;;;;;912950;154;27480;-76
2023/06/13 04:35:54;;;;;;;3.40;2.92;;;18.80;49.70;;;;;;914081;154;27347;-76
2023/06/13 04:38:20;;;;;;;2.85;2.65;;;18.90;49.80;;;;;;912165;154;27372;-76
2023/06/13 04:40:45;;;;;;;2.95;2.70;;;18.90;49.70;;;;;;914391;154;27441;-76
2023/06/13 04:43:14;;;;;;;3.33;2.52;;;19.00;49.70;;;;;;912439;154;27387;-76
2023/06/13 04:45:38;;;;;;;2.83;2.62;;;19.10;50.30;;;;;;908578;155;27489;-76
2023/06/13 04:48:05;;;;;;;3.17;2.95;;;19.20;49.30;;;;;;909810;155;27364;-76
2023/06/13 04:50:33;;;;;;;3.87;3.17;;;19.30;49.70;;;;;;908090;155;27618;-76
2023/06/13 04:52:58;;;;;;;3.33;3.02;;;19.40;49.80;;;;;;912472;155;27378;-76
2023/06/13 04:55:32;;;;;;;2.95;2.75;;;19.50;49.80;;;;;;895706;155;27515;-76
2023/06/13 04:57:51;;;;;;;2.90;2.65;;;19.80;50.80;;;;;;923522;152;27329;-77
2023/06/13 05:00:18;;;;;;;4.08;2.62;;;20.20;50.60;;;;;;925306;152;27373;-77
2023/06/13 05:02:45;;;;;;;3.20;2.72;;;20.60;51.10;;;;;;924871;152;27313;-76
2023/06/13 05:05:14;;;;;;;2.25;2.10;;;21.20;51.30;;;;;;914813;154;27404;-76
2023/06/13 05:07:39;;;;;;;2.95;2.67;;;21.90;50.70;;;;;;924935;152;27503;-76
2023/06/13 05:10:04;;;;;;;3.45;2.47;;;22.70;50.90;;;;;;909934;155;27329;-76
2023/06/13 05:12:31;;;;;;;2.77;2.58;;;23.50;50.20;;;;;;924078;152;27340;-77
2023/06/13 05:14:57;;;;;;;2.60;2.08;;;24.40;49.40;;;;;;890654;156;27354;-77
2023/06/13 05:17:27;;;;;;;2.15;2.05;;;25.20;48.50;;;;;;893649;156;27390;-77
2023/06/13 05:19:52;;;;;;;4.08;2.83;;;26.00;48.30;;;;;;913170;154;27501;-77
2023/06/13 05:22:17;;;;;;;2.10;1.98;;;26.80;46.90;;;;;;913735;154;27349;-77
2023/06/13 05:24:43;;;;;;;4.17;2.45;;;27.60;46.10;;;;;;913168;154;27340;-77
2023/06/13 05:27:11;;;;;;;2.55;2.35;;;28.30;45.30;;;;;;914167;154;27461;-77
2023/06/13 05:29:38;;;;;;;2.17;2.02;;;29.10;44.50;;;;;;914912;153;27854;-77
2023/06/13 05:32:03;;;;;;;2.70;2.50;;;29.80;43.70;;;;;;916335;154;27506;-74
2023/06/13 05:34:31;;;;;;;3.30;2.10;;;30.50;42.90;;;;;;916502;154;27302;-75
2023/06/13 05:36:56;;;;;;;3.22;2.10;;;31.10;42.00;;;;;;916454;154;27321;-74
2023/06/13 05:39:23;;;;;;;2.60;2.05;;;31.60;40.90;;;;;;916117;154;27392;-76
2023/06/13 05:41:50;;;;;;;2.25;1.75;;;32.10;40.10;;;;;;916539;154;27479;-76
2023/06/13 05:44:16;;;;;;;2.47;2.00;;;32.60;39.60;;;;;;916419;154;27399;-76
2023/06/13 05:46:43;;;;;;;2.52;2.30;;;33.00;38.90;;;;;;929952;152;27434;-75
2023/06/13 05:49:09;;;;;;;2.27;2.08;;;33.40;38.20;;;;;;910613;155;27454;-76
2023/06/13 05:51:36;;;;;;;2.55;1.95;;;33.80;37.70;;;;;;897117;155;26309;-75
2023/06/13 05:54:03;;;;;;;3.08;2.55;;;34.20;37.10;;;;;;897254;155;27310;-75
2023/06/13 05:56:31;;;;;;;2.27;2.08;;;34.50;36.30;;;;;;899548;155;26381;-75
2023/06/13 05:58:56;;;;;;;2.33;1.95;;;34.80;35.70;;;;;;897296;155;27457;-75
2023/06/13 06:01:22;;;;;;;2.08;1.77;;;35.00;35.40;;;;;;897203;156;26302;-76
2023/06/13 06:03:49;;;;;;;2.00;1.90;;;35.20;35.00;;;;;;898102;155;27413;-76
2023/06/13 06:06:15;;;;;;;2.25;2.10;;;35.40;34.40;;;;;;896318;155;27776;-76
2023/06/13 06:08:42;;;;;;;1.90;1.80;;;35.50;34.10;;;;;;917775;154;26245;-75
2023/06/13 06:11:09;;;;;;;2.02;1.92;;;35.70;33.90;;;;;;916267;154;26226;-76
2023/06/13 06:13:35;;;;;;;3.35;1.90;;;35.80;33.50;;;;;;916037;154;26317;-76
2023/06/13 06:16:02;;;;;;;2.25;1.80;;;36.00;33.40;;;;;;928488;152;26353;-76
2023/06/13 06:18:28;;;;;;;2.20;2.00;;;36.20;33.20;;;;;;916439;154;26238;-76
2023/06/13 06:20:55;;;;;;;2.55;2.30;;;36.40;33.20;;;;;;916584;154;26354;-77
2023/06/13 06:23:22;;;;;;;2.83;2.15;;;36.70;33.00;;;;;;917267;154;26390;-76
2023/06/13 06:25:48;;;;;;;2.27;1.98;;;37.10;32.90;;;;;;927608;152;26296;-76
2023/06/13 06:28:15;;;;;;;3.37;2.17;;;37.40;32.30;;;;;;912043;155;26410;-76
2023/06/13 06:30:41;;;;;;;1.85;1.75;;;37.70;31.80;;;;;;915939;153;26262;-76
2023/06/13 06:33:08;;;;;;;2.08;1.90;;;37.90;31.00;;;;;;913995;154;26367;-74
2023/06/13 06:35:35;;;;;;;3.42;2.08;;;38.20;30.40;;;;;;913708;154;26456;-74
2023/06/13 06:38:02;;;;;;;8.53;2.20;;;38.40;30.00;;;;;;894813;155;26267;-74
2023/06/13 06:40:28;;;;;;;3.77;2.10;;;38.40;29.70;;;;;;907912;155;26259;-74
2023/06/13 06:42:54;;;;;;;1.92;1.82;;;38.40;29.50;;;;;;907791;155;26802;-74
2023/06/13 06:45:21;;;;;;;2.45;2.08;;;38.40;29.50;;;;;;904234;156;26338;-74
2023/06/13 06:47:48;;;;;;;1.95;1.85;;;38.40;29.50;;;;;;913008;154;26391;-74
2023/06/13 06:50:14;;;;;;;2.12;1.95;;;38.40;29.50;;;;;;912570;154;26370;-74
2023/06/13 06:52:41;;;;;;;3.20;2.30;;;38.50;29.50;;;;;;919667;153;26340;-75
2023/06/13 06:55:07;;;;;;;1.77;1.67;;;38.70;29.30;;;;;;912323;154;26435;-74
2023/06/13 06:57:34;;;;;;;3.85;2.00;;;38.80;28.80;;;;;;913104;154;26404;-75
2023/06/13 07:00:00;;;;;;;1.90;1.80;;;39.00;29.10;;;;;;913152;154;26276;-74
2023/06/13 07:02:27;;;;;;;2.83;2.08;;;39.20;29.00;;;;;;910991;154;26342;-75
2023/06/13 07:04:54;;;;;;;2.50;2.27;;;39.50;28.80;;;;;;926698;152;26272;-75
2023/06/13 07:07:20;;;;;;;2.35;2.15;;;39.70;28.60;;;;;;905205;156;26335;-75
2023/06/13 07:09:47;;;;;;;2.47;2.00;;;40.00;28.60;;;;;;912766;153;26369;-74
2023/06/13 07:12:13;;;;;;;2.17;1.75;;;40.20;28.40;;;;;;903861;156;26394;-74
2023/06/13 07:14:40;;;;;;;2.25;1.70;;;40.40;28.00;;;;;;924978;152;26367;-75
2023/06/13 07:17:07;;;;;;;2.27;1.87;;;40.70;27.90;;;;;;913508;154;26312;-74
2023/06/13 07:19:33;;;;;;;1.90;1.80;;;40.90;27.60;;;;;;913338;154;26294;-74
2023/06/13 07:22:00;;;;;;;2.15;1.98;;;41.20;27.10;;;;;;922738;153;26682;-75
2023/06/13 07:24:26;;;;;;;2.25;1.82;;;41.30;26.90;;;;;;924497;152;26210;-74
2023/06/13 07:26:53;;;;;;;2.40;1.90;;;41.30;26.50;;;;;;909843;155;26208;-74
2023/06/13 07:29:20;;;;;;;2.15;1.80;;;41.20;26.50;;;;;;903159;156;26349;-74
2023/06/13 07:31:46;;;;;;;2.40;2.20;;;41.20;26.50;;;;;;903537;155;26307;-74
2023/06/13 07:34:13;;;;;;;1.65;1.55;;;41.20;26.30;;;;;;906715;154;26313;-74
2023/06/13 07:36:39;;;;;;;1.70;1.60;;;41.10;26.20;;;;;;912930;154;26420;-75
2023/06/13 07:39:09;;;;;;;2.70;1.87;;;41.10;26.20;;;;;;926963;151;26337;-75
2023/06/13 07:41:36;;;;;;;2.90;2.08;;;41.10;26.00;;;;;;918677;153;27868;-74
2023/06/13 07:44:02;;;;;;;5.80;2.25;;;41.10;25.90;;;;;;920202;153;26276;-74
2023/06/13 07:46:29;;;;;;;2.02;1.77;;;41.00;25.70;;;;;;909913;154;26326;-74
2023/06/13 07:48:55;;;;;;;1.90;1.80;;;40.90;25.60;;;;;;923884;151;26228;-74
2023/06/13 07:51:22;;;;;;;1.98;1.87;;;40.90;25.60;;;;;;925948;151;26321;-74
2023/06/13 07:53:48;;;;;;;2.95;1.82;;;40.90;25.50;;;;;;919830;153;26396;-75
2023/06/13 07:56:15;;;;;;;2.33;2.10;;;40.90;25.60;;;;;;924251;153;26212;-75
2023/06/13 07:58:41;;;;;;;1.70;1.60;;;40.90;25.30;;;;;;925836;151;26241;-75
2023/06/13 08:01:08;;;;;;;1.80;1.70;;;40.90;25.20;;;;;;927068;151;26351;-74
2023/06/13 08:03:35;;;;;;;2.25;1.80;;;40.90;25.20;;;;;;923810;151;26408;-75
2023/06/13 08:06:01;;;;;;;2.83;1.90;;;40.90;25.20;;;;;;926761;151;26274;-74
2023/06/13 08:08:28;;;;;;;2.75;1.90;;;40.90;25.20;;;;;;925418;152;26217;-74
2023/06/13 08:10:54;;;;;;;2.45;1.80;;;41.00;25.00;;;;;;927297;152;26262;-75
2023/06/13 08:13:21;;;;;;;2.10;1.90;;;41.10;25.10;;;;;;927566;152;26380;-75
2023/06/13 08:15:48;;;;;;;2.30;2.10;;;41.10;24.90;;;;;;925846;152;26401;-74
2023/06/13 08:18:14;;;;;;;1.80;1.70;;;41.20;24.70;;;;;;926350;152;26345;-74
2023/06/13 08:20:41;;;;;;;2.10;2.00;;;41.20;24.60;;;;;;925181;152;26344;-75
2023/06/13 08:23:07;;;;;;;2.27;2.08;;;41.30;24.40;;;;;;925721;152;26238;-74
2023/06/13 08:25:34;;;;;;;2.25;1.87;;;41.20;24.20;;;;;;926879;152;26711;-75
2023/06/13 08:28:01;;;;;;;2.40;1.95;;;41.10;24.30;;;;;;925797;152;26298;-75
2023/06/13 08:30:27;;;;;;;2.80;2.60;;;41.10;24.30;;;;;;925305;152;26326;-75
2023/06/13 08:32:54;;;;;;;2.90;2.60;;;41.20;24.20;;;;;;925834;152;26217;-75
2023/06/13 08:35:20;;;;;;;3.25;2.83;;;41.30;23.90;;;;;;926034;152;26407;-75
2023/06/13 08:37:47;;;;;;;4.08;2.10;;;41.30;23.70;;;;;;926023;151;26285;-75
2023/06/13 08:40:16;;;;;;;4.28;2.30;;;41.20;23.70;;;;;;899939;154;26305;-75
2023/06/13 08:42:40;;;;;;;3.22;2.55;;;41.20;23.60;;;;;;923937;151;26403;-75
2023/06/13 08:45:07;;;;;;;6.22;3.37;;;41.10;23.60;;;;;;922401;153;26324;-75
2023/06/13 08:47:33;;;;;;;5.47;2.10;;;40.90;23.30;;;;;;927744;151;26260;-75
2023/06/13 08:50:00;;;;;;;1.70;1.60;;;40.80;23.30;;;;;;926358;152;26322;-75
2023/06/13 08:52:26;;;;;;;2.40;2.20;;;40.80;23.60;;;;;;926019;152;26247;-75
2023/06/13 08:54:53;;;;;;;2.40;1.90;;;40.70;23.50;;;;;;925582;152;26279;-75
2023/06/13 08:57:20;;;;;;;2.55;1.85;;;40.70;24.00;;;;;;900275;155;26409;-75
2023/06/13 08:59:46;;;;;;;2.20;2.00;;;40.60;23.60;;;;;;928004;152;26285;-75
2023/06/13 09:02:13;;;;;;;2.25;1.98;;;40.70;23.80;;;;;;910944;155;26278;-75
2023/06/13 09:04:39;;;;;;;2.40;2.20;;;40.80;23.60;;;;;;923434;151;26360;-75
2023/06/13 09:07:06;;;;;;;2.10;1.90;;;40.90;23.40;;;;;;926790;151;26277;-75
2023/06/13 09:09:33;;;;;;;3.33;2.72;;;40.90;23.40;;;;;;926579;152;26299;-75
2023/06/13 09:11:59;;;;;;;2.55;2.35;;;41.10;23.40;;;;;;925238;152;26285;-75
2023/06/13 09:14:26;;;;;;;2.62;2.42;;;41.20;23.30;;;;;;925096;152;26586;-75
2023/06/13 09:16:52;;;;;;;3.30;2.00;;;41.30;23.30;;;;;;924164;152;26317;-75
2023/06/13 09:19:19;;;;;;;3.10;2.10;;;41.40;23.30;;;;;;913023;154;26309;-75
2023/06/13 09:21:46;;;;;;;2.52;1.80;;;41.40;22.90;;;;;;925319;151;26257;-75
2023/06/13 09:24:12;;;;;;;2.27;2.17;;;41.40;23.00;;;;;;911873;155;26303;-75
2023/06/13 09:26:42;;;;;;;2.80;1.85;;;41.20;22.90;;;;;;926085;152;26214;-75
2023/06/13 09:29:08;;;;;;;2.50;1.60;;;41.10;23.10;;;;;;928600;152;26423;-75
2023/06/13 09:31:38;;;;;;;2.45;2.25;;;40.90;23.20;;;;;;927228;152;26260;-75
2023/06/13 09:34:06;;;;;;;2.35;1.80;;;40.90;23.10;;;;;;926790;152;26284;-75
2023/06/13 09:36:31;;;;;;;1.90;1.80;;;40.90;23.10;;;;;;921477;153;26304;-75
2023/06/13 09:38:57;;;;;;;4.12;1.90;;;41.00;23.40;;;;;;919763;153;26302;-75
2023/06/13 09:41:24;;;;;;;1.70;1.60;;;41.10;23.20;;;;;;920089;153;26260;-75
2023/06/13 09:43:50;;;;;;;1.95;1.82;;;41.40;23.10;;;;;;922238;153;26245;-75
2023/06/13 09:46:19;;;;;;;2.77;1.85;;;41.50;22.90;;;;;;922068;153;26380;-75
2023/06/13 09:48:44;;;;;;;3.08;1.90;;;41.60;22.80;;;;;;920526;153;26304;-75
2023/06/13 09:51:13;;;;;;;3.15;1.90;;;41.60;22.90;;;;;;920824;153;26312;-75
2023/06/13 09:53:39;;;;;;;1.57;1.47;;;41.50;23.00;;;;;;918979;153;26388;-75
2023/06/13 09:56:09;;;;;;;2.20;2.00;;;41.40;22.70;;;;;;917860;153;26307;-75
2023/06/13 09:58:38;;;;;;;4.50;2.22;;;41.30;22.60;;;;;;920199;153;26402;-75
2023/06/13 10:01:03;;;;;;;2.72;2.10;;;41.10;22.40;;;;;;919248;153;26389;-75
2023/06/13 10:03:29;;;;;;;5.50;1.85;;;40.80;22.30;;;;;;921685;153;26283;-75
2023/06/13 10:05:58;;;;;;;3.30;1.80;;;40.50;22.10;;;;;;920961;153;26233;-75
2023/06/13 10:08:24;;;;;;;2.50;1.80;;;40.10;22.00;;;;;;919748;153;26410;-75
2023/06/13 10:10:51;;;;;;;2.27;1.80;;;39.50;22.00;;;;;;921424;153;26432;-75
2023/06/13 10:13:18;;;;;;;2.33;1.90;;;39.00;22.30;;;;;;919550;153;26351;-75
2023/06/13 10:15:44;;;;;;;2.30;2.10;;;38.40;22.20;;;;;;920646;153;27383;-75
2023/06/13 10:18:13;;;;;;;2.30;2.10;;;37.90;22.30;;;;;;918328;153;26324;-75
2023/06/13 10:20:40;;;;;;;1.85;1.75;;;37.30;22.40;;;;;;919608;153;27419;-75
2023/06/13 10:23:09;;;;;;;2.92;2.35;;;36.70;22.60;;;;;;921676;153;27338;-75
2023/06/13 10:25:36;;;;;;;2.33;2.12;;;36.20;22.70;;;;;;920667;153;27464;-75
2023/06/13 10:28:11;;;;;;;2.87;2.05;;;35.70;23.00;;;;;;922714;153;27447;-75
2023/06/13 10:31:02;;;;;;;3.67;2.17;;;35.20;23.10;;;;;;920825;153;27404;-75
2023/06/13 10:33:41;;;;;;;2.85;2.20;;;34.70;23.30;;;;;;919583;153;27364;-74
2023/06/13 10:36:18;;;;;;;2.25;2.12;;;34.30;23.40;;;;;;922384;153;27508;-74
2023/06/13 10:38:48;;;;;;;2.95;2.50;;;33.90;23.40;;;;;;923984;152;27401;-75
2023/06/13 10:41:51;;;;;;;3.92;2.52;;;33.50;23.60;;;;;;925125;152;27420;-74
2023/06/13 10:44:18;;;;;;;3.85;2.10;;;33.10;23.80;;;;;;921533;153;27470;-74
2023/06/13 10:46:45;;;;;;;2.17;2.08;;;32.60;23.90;;;;;;925146;153;27351;-74
2023/06/13 10:49:15;;;;;;;2.40;2.20;;;32.20;24.20;;;;;;923458;153;27457;-74
2023/06/13 10:51:40;;;;;;;2.10;1.90;;;31.90;24.90;;;;;;924618;152;27521;-74
2023/06/13 10:54:07;;;;;;;2.65;2.27;;;31.50;24.60;;;;;;923549;152;27336;-74
2023/06/13 10:56:33;;;;;;;4.87;2.33;;;31.20;24.80;;;;;;923470;153;27340;-74
2023/06/13 10:59:02;;;;;;;2.45;2.25;;;31.00;25.00;;;;;;923227;153;27469;-74
2023/06/13 11:01:29;;;;;;;2.70;2.00;;;30.80;25.20;;;;;;921500;153;27306;-74
2023/06/13 11:04:08;;;;;;;3.10;2.47;;;30.70;25.40;;;;;;923006;153;27320;-75
2023/06/13 11:06:34;;;;;;;2.75;1.98;;;30.50;25.60;;;;;;918183;153;27448;-74
2023/06/13 11:09:07;;;;;;;2.42;2.02;;;30.40;25.60;;;;;;924217;153;27394;-74
2023/06/13 11:11:33;;;;;;;4.42;2.33;;;30.30;25.80;;;;;;920677;152;27898;-74
2023/06/13 11:14:00;;;;;;;2.62;2.25;;;30.10;25.90;;;;;;925005;153;27483;-74
2023/06/13 11:16:39;;;;;;;2.98;2.17;;;30.00;25.90;;;;;;924361;152;27370;-74
2023/06/13 11:19:06;;;;;;;4.42;2.77;;;29.90;26.00;;;;;;923849;153;27414;-74
2023/06/13 11:21:32;;;;;;;4.92;2.33;;;29.80;26.10;;;;;;922856;153;27495;-74
2023/06/13 11:23:58;;;;;;;2.65;2.45;;;29.70;26.10;;;;;;922350;152;27497;-74
2023/06/13 11:26:25;;;;;;;6.53;2.60;;;29.60;26.20;;;;;;923821;153;27442;-74
2023/06/13 11:28:52;;;;;;;2.70;2.40;;;29.50;26.20;;;;;;923138;152;27364;-74
2023/06/13 11:31:18;;;;;;;2.52;2.10;;;29.40;26.30;;;;;;922564;152;27389;-74
2023/06/13 11:33:48;;;;;;;3.40;2.47;;;29.40;26.50;;;;;;924222;153;27363;-74
2023/06/13 11:36:14;;;;;;;2.50;2.30;;;29.30;26.60;;;;;;920079;153;27759;-74
2023/06/13 11:38:41;;;;;;;2.85;2.37;;;29.30;26.60;;;;;;920425;153;27363;-74
2023/06/13 11:41:07;;;;;;;2.50;2.30;;;29.20;26.70;;;;;;921765;153;27375;-74
2023/06/13 11:43:34;;;;;;;2.50;2.40;;;29.20;26.90;;;;;;921807;153;28148;-74
2023/06/13 11:46:01;;;;;;;2.42;2.22;;;29.20;27.10;;;;;;921733;153;27443;-74
2023/06/13 11:48:27;;;;;;;2.45;2.10;;;29.20;27.30;;;;;;922575;153;27363;-74
2023/06/13 11:50:54;;;;;;;2.37;2.17;;;29.20;27.40;;;;;;921100;153;27357;-74
2023/06/13 11:53:22;;;;;;;2.02;1.92;;;29.20;27.10;;;;;;917303;153;27400;-74
2023/06/13 11:55:47;;;;;;;2.50;2.35;;;29.20;27.20;;;;;;920421;153;27343;-74
2023/06/13 11:58:14;;;;;;;2.60;2.40;;;29.20;27.40;;;;;;918602;153;27376;-74
2023/06/13 12:00:53;;;;;;;3.20;2.30;;;29.20;27.40;;;;;;920252;153;27424;-74
2023/06/13 12:03:22;;;;;;;2.10;2.00;;;29.30;27.40;;;;;;921164;153;27452;-75
2023/06/13 12:05:48;;;;;;;2.52;2.15;;;29.30;27.30;;;;;;920966;153;27358;-75
2023/06/13 12:08:17;;;;;;;2.37;2.12;;;29.30;27.30;;;;;;919371;153;27364;-75
2023/06/13 12:10:46;;;;;;;2.37;2.17;;;29.40;27.40;;;;;;919886;153;27396;-75
2023/06/13 12:13:13;;;;;;;2.25;2.12;;;29.40;27.50;;;;;;918242;153;27390;-75
2023/06/13 12:15:40;;;;;;;2.67;2.47;;;29.50;27.50;;;;;;919568;153;27421;-75
2023/06/13 12:18:06;;;;;;;2.75;2.45;;;29.50;27.50;;;;;;921618;153;27398;-75
2023/06/13 12:20:36;;;;;;;2.40;2.20;;;29.50;27.70;;;;;;921276;153;27393;-75
2023/06/13 12:22:59;;;;;;;2.45;2.25;;;29.50;27.60;;;;;;888019;156;27495;-75
2023/06/13 12:25:30;;;;;;;2.40;1.82;;;29.50;27.50;;;;;;912631;154;27324;-75
2023/06/13 12:27:55;;;;;;;4.08;2.10;;;29.50;27.70;;;;;;925166;152;27363;-75
2023/06/13 12:30:22;;;;;;;3.27;1.92;;;29.50;27.70;;;;;;908722;155;27372;-75
2023/06/13 12:32:56;;;;;;;2.20;2.05;;;29.50;27.80;;;;;;908369;155;27397;-75
2023/06/13 12:35:21;;;;;;;2.75;2.12;;;29.50;27.80;;;;;;912844;154;27371;-75
2023/06/13 12:37:58;;;;;;;3.70;2.37;;;29.50;27.80;;;;;;916597;153;27662;-75
2023/06/13 12:40:24;;;;;;;2.75;2.35;;;29.50;28.00;;;;;;924413;152;27359;-75
2023/06/13 12:42:50;;;;;;;2.42;2.22;;;29.60;28.00;;;;;;902435;155;27402;-75
2023/06/13 12:45:16;;;;;;;2.50;2.30;;;29.60;28.10;;;;;;908474;155;27403;-75
2023/06/13 12:47:43;;;;;;;4.00;2.75;;;29.70;27.80;;;;;;918099;154;27332;-75